Time;durP1;ratioP1;P1;durP2;ratioP2;P2;SDS_P1;SDS_P2;PMS_P1;PMS_P2;Temp;Humidity;BMP_temperature;BMP_pressure;BME280_temperature;BME280_humidity;BME280_pressure;Samples;Min_cycle;Max_cycle;Signal;HPM_P1;HPM_P2
2023/04/16 00:01:02;;;;;;;88.03;23.95;;;;;;;;;;6138505;23;20418;-92
2023/04/16 00:03:47;;;;;;;93.28;25.38;;;;;;;;;;6137773;23;20515;-91
2023/04/16 00:06:13;;;;;;;109.07;24.75;;;;;;;;;;6161723;23;20091;-91
2023/04/16 00:08:40;;;;;;;86.63;23.10;;;;;;;;;;6137592;23;20009;-92
2023/04/16 00:11:22;;;;;;;95.95;25.48;;;;;;;;;;6139316;23;20037;-91
2023/04/16 00:13:48;;;;;;;74.55;25.48;;;;;;;;;;6163053;23;20012;-92
2023/04/16 00:16:15;;;;;;;107.28;26.70;;;;;;;;;;6138197;23;20012;-92
2023/04/16 00:18:41;;;;;;;104.95;27.27;;;;;;;;;;6162513;23;20510;-92
2023/04/16 00:21:26;;;;;;;91.03;24.92;;;;;;;;;;6162573;23;20510;-92
2023/04/16 00:23:53;;;;;;;104.72;27.05;;;;;;;;;;6160516;23;20088;-92
2023/04/16 00:26:20;;;;;;;102.95;26.98;;;;;;;;;;6137539;23;20001;-92
2023/04/16 00:29:02;;;;;;;90.63;25.55;;;;;;;;;;6161953;23;20291;-93
2023/04/16 00:31:29;;;;;;;98.70;26.95;;;;;;;;;;6163083;23;20005;-93
2023/04/16 00:33:59;;;;;;;85.95;24.48;;;;;;;;;;6162858;23;20032;-93
2023/04/16 00:36:30;;;;;;;96.00;25.50;;;;;;;;;;6161664;23;20009;-93
2023/04/16 00:38:59;;;;;;;90.30;26.15;;;;;;;;;;6166841;22;20703;-94
2023/04/16 00:41:58;;;;;;;82.03;26.60;;;;;;;;;;6163093;23;20439;-93
2023/04/16 00:44:24;;;;;;;78.03;25.63;;;;;;;;;;6139197;23;20341;-94
2023/04/16 00:46:51;;;;;;;78.82;25.75;;;;;;;;;;6162399;23;20019;-94
2023/04/16 00:49:37;;;;;;;78.82;25.13;;;;;;;;;;6137972;23;20530;-93
2023/04/16 00:52:07;;;;;;;74.70;25.42;;;;;;;;;;6163326;23;20072;-92
2023/04/16 00:54:33;;;;;;;87.78;27.30;;;;;;;;;;6163804;23;20367;-92
2023/04/16 00:57:00;;;;;;;84.05;27.88;;;;;;;;;;6140272;23;20475;-93
2023/04/16 00:59:29;;;;;;;101.85;27.45;;;;;;;;;;6139579;23;20462;-93
2023/04/16 01:01:56;;;;;;;95.45;24.75;;;;;;;;;;6167112;23;20009;-94
2023/04/16 01:04:22;;;;;;;81.35;26.67;;;;;;;;;;6138765;23;20013;-93
2023/04/16 01:06:49;;;;;;;89.22;26.67;;;;;;;;;;6136514;23;20112;-94
2023/04/16 01:09:28;;;;;;;73.50;24.00;;;;;;;;;;6159862;23;20012;-93
2023/04/16 01:11:54;;;;;;;80.38;25.35;;;;;;;;;;6138228;23;20009;-93
2023/04/16 01:14:21;;;;;;;80.55;23.75;;;;;;;;;;6136004;23;20447;-94
2023/04/16 01:16:47;;;;;;;78.32;25.02;;;;;;;;;;6134051;23;20005;-93
2023/04/16 01:19:28;;;;;;;67.97;24.80;;;;;;;;;;6133596;23;20498;-93
2023/04/16 01:21:54;;;;;;;56.92;22.15;;;;;;;;;;6138030;23;20033;-94
2023/04/16 01:24:30;;;;;;;53.75;19.45;;;;;;;;;;6135686;23;20020;-92
2023/04/16 01:26:56;;;;;;;;;;;;;;;;;;6138616;23;20017;-93
2023/04/16 01:29:23;;;;;;;62.83;20.17;;;;;;;;;;6160525;23;19935;-92
2023/04/16 01:31:49;;;;;;;48.15;19.05;;;;;;;;;;6138103;23;20510;-92
2023/04/16 01:34:15;;;;;;;51.08;19.75;;;;;;;;;;6135164;23;20028;-93
2023/04/16 01:36:41;;;;;;;57.63;21.77;;;;;;;;;;6160852;23;20068;-92
2023/04/16 01:39:14;;;;;;;67.82;20.55;;;;;;;;;;6144195;23;20024;-93
2023/04/16 01:41:53;;;;;;;;;;;;;;;;;;;;;
2023/04/16 01:44:21;;;;;;;60.90;21.92;;;;;;;;;;6214844;23;20458;-92
2023/04/16 01:46:48;;;;;;;70.93;21.67;;;;;;;;;;6188654;23;20020;-93
2023/04/16 01:49:21;;;;;;;58.33;23.33;;;;;;;;;;6213609;23;20450;-93
2023/04/16 01:51:47;;;;;;;65.22;21.33;;;;;;;;;;6190026;23;20258;-92
2023/04/16 01:54:13;;;;;;;67.22;23.80;;;;;;;;;;6190809;23;20028;-93
2023/04/16 01:56:39;;;;;;;71.00;23.25;;;;;;;;;;6190353;23;20326;-93
2023/04/16 01:59:24;;;;;;;74.20;23.00;;;;;;;;;;6190254;23;20008;-92
2023/04/16 02:01:50;;;;;;;78.85;24.13;;;;;;;;;;6191016;23;20013;-94
2023/04/16 02:04:17;;;;;;;71.88;24.02;;;;;;;;;;6190867;23;20009;-92
2023/04/16 02:06:43;;;;;;;65.32;24.13;;;;;;;;;;6190841;23;20431;-92
2023/04/16 02:09:10;;;;;;;68.28;25.58;;;;;;;;;;6190817;23;20012;-92
2023/04/16 02:11:36;;;;;;;92.57;26.35;;;;;;;;;;6216220;23;20005;-92
2023/04/16 02:14:29;;;;;;;100.97;27.38;;;;;;;;;;6191635;23;20066;-92
2023/04/16 02:16:56;;;;;;;84.03;26.73;;;;;;;;;;6213657;23;20000;-92
2023/04/16 02:19:26;;;;;;;96.35;29.75;;;;;;;;;;6216716;23;20012;-93
2023/04/16 02:22:35;;;;;;;106.18;29.50;;;;;;;;;;6217554;23;20005;-95
2023/04/16 02:24:42;;;;;;;124.25;28.88;;;;;;;;;;6201140;23;20020;-94
2023/04/16 02:27:12;;;;;;;112.32;30.02;;;;;;;;;;6216566;23;20043;-94
2023/04/16 02:29:39;;;;;;;104.68;28.27;;;;;;;;;;6191107;23;20411;-92
2023/04/16 02:32:06;;;;;;;101.97;30.17;;;;;;;;;;6191351;23;20062;-92
2023/04/16 02:34:33;;;;;;;110.22;27.85;;;;;;;;;;6216225;23;20053;-93
2023/04/16 02:37:01;;;;;;;110.03;29.40;;;;;;;;;;6190426;23;20005;-92
2023/04/16 02:39:40;;;;;;;90.72;27.92;;;;;;;;;;6218932;22;20043;-93
2023/04/16 02:42:06;;;;;;;115.28;28.95;;;;;;;;;;6138357;23;20027;-93
2023/04/16 02:44:34;;;;;;;86.70;28.30;;;;;;;;;;6137154;23;20443;-93
2023/04/16 02:47:00;;;;;;;96.10;27.55;;;;;;;;;;6160453;23;20039;-93
2023/04/16 02:49:27;;;;;;;100.35;28.13;;;;;;;;;;6137325;23;20009;-93
2023/04/16 02:51:59;;;;;;;92.07;26.30;;;;;;;;;;6136364;23;20012;-92
2023/04/16 02:54:25;;;;;;;96.88;26.35;;;;;;;;;;6136927;23;20009;-93
2023/04/16 02:56:55;;;;;;;112.68;27.95;;;;;;;;;;6136053;23;20342;-93
2023/04/16 02:59:24;;;;;;;99.80;26.25;;;;;;;;;;6161160;23;20413;-93
2023/04/16 03:01:54;;;;;;;102.03;26.33;;;;;;;;;;6161472;23;20015;-92
2023/04/16 03:04:23;;;;;;;102.65;26.92;;;;;;;;;;6137801;23;20013;-93
2023/04/16 03:06:49;;;;;;;99.70;27.08;;;;;;;;;;6138015;23;20041;-93
2023/04/16 03:09:22;;;;;;;96.18;25.83;;;;;;;;;;6135485;23;20019;-93
2023/04/16 03:11:49;;;;;;;116.55;27.50;;;;;;;;;;6136767;23;20013;-92
2023/04/16 03:14:15;;;;;;;106.38;26.65;;;;;;;;;;6137200;23;20013;-93
2023/04/16 03:16:45;;;;;;;98.53;26.27;;;;;;;;;;6138231;23;20020;-92
2023/04/16 03:19:19;;;;;;;113.15;27.42;;;;;;;;;;6138602;23;20032;-92
2023/04/16 03:21:46;;;;;;;99.47;27.50;;;;;;;;;;6139258;23;20017;-93
2023/04/16 03:24:13;;;;;;;97.57;27.70;;;;;;;;;;6137461;23;20013;-91
2023/04/16 03:26:43;;;;;;;87.88;25.35;;;;;;;;;;6134290;23;20147;-94
2023/04/16 03:29:09;;;;;;;105.80;26.23;;;;;;;;;;6136182;23;20325;-93
2023/04/16 03:31:41;;;;;;;86.75;25.02;;;;;;;;;;6161056;23;20021;-93
2023/04/16 03:34:07;;;;;;;96.07;25.10;;;;;;;;;;6159795;23;20012;-92
2023/04/16 03:36:51;;;;;;;99.45;26.10;;;;;;;;;;6136932;23;20432;-93
2023/04/16 03:39:20;;;;;;;105.00;23.60;;;;;;;;;;6163572;22;20072;-94
2023/04/16 03:41:46;;;;;;;97.78;23.40;;;;;;;;;;6135720;23;20025;-93
2023/04/16 03:44:12;;;;;;;87.32;24.88;;;;;;;;;;6159578;23;20013;-93
2023/04/16 03:46:41;;;;;;;94.60;25.40;;;;;;;;;;6162055;23;20058;-93
2023/04/16 03:49:07;;;;;;;92.47;22.83;;;;;;;;;;6161100;23;20013;-93
2023/04/16 03:51:46;;;;;;;99.15;24.15;;;;;;;;;;6162243;23;20092;-93
2023/04/16 03:54:14;;;;;;;85.57;22.70;;;;;;;;;;6160671;23;20431;-92
2023/04/16 03:56:40;;;;;;;92.22;24.17;;;;;;;;;;6162418;23;20439;-92
2023/04/16 03:59:07;;;;;;;104.47;23.60;;;;;;;;;;6161728;23;20009;-92
2023/04/16 04:01:33;;;;;;;95.50;23.60;;;;;;;;;;6161582;23;20009;-92
2023/04/16 04:06:46;;;;;;;;;;;;;;;;;;6126651;23;20051;-92
2023/04/16 04:09:12;;;;;;;81.68;19.55;;;;;;;;;;6163029;23;19911;-92
2023/04/16 04:11:38;;;;;;;90.35;24.17;;;;;;;;;;6163046;23;20001;-93
2023/04/16 04:14:05;;;;;;;82.47;23.17;;;;;;;;;;6163111;23;20017;-91
2023/04/16 04:16:31;;;;;;;114.82;24.83;;;;;;;;;;6162436;23;20013;-92
2023/04/16 04:18:59;;;;;;;112.28;25.02;;;;;;;;;;6162483;23;20040;-91
2023/04/16 04:21:26;;;;;;;91.72;23.83;;;;;;;;;;6161190;23;20495;-92
2023/04/16 04:23:58;;;;;;;94.70;24.77;;;;;;;;;;6161248;23;20051;-91
2023/04/16 04:26:25;;;;;;;95.68;22.88;;;;;;;;;;6161537;23;20040;-91
2023/04/16 04:28:53;;;;;;;98.07;24.65;;;;;;;;;;6162128;23;20039;-92
2023/04/16 04:31:23;;;;;;;109.78;24.85;;;;;;;;;;6161891;23;20368;-92
2023/04/16 04:33:52;;;;;;;108.50;24.50;;;;;;;;;;6162604;23;20332;-90
2023/04/16 04:36:21;;;;;;;100.32;23.25;;;;;;;;;;6162440;23;20020;-91
2023/04/16 04:38:47;;;;;;;90.60;22.05;;;;;;;;;;6164640;23;20032;-91
2023/04/16 04:41:20;;;;;;;110.95;23.83;;;;;;;;;;6200201;22;20517;-91
2023/04/16 04:43:55;;;;;;;107.00;25.08;;;;;;;;;;6164328;23;20024;-92
2023/04/16 04:46:22;;;;;;;92.53;23.10;;;;;;;;;;6165870;23;20005;-92
2023/04/16 04:48:51;;;;;;;96.32;27.48;;;;;;;;;;6137049;23;20032;-92
2023/04/16 04:51:17;;;;;;;101.90;23.85;;;;;;;;;;6138395;23;20009;-90
2023/04/16 04:53:43;;;;;;;80.95;23.00;;;;;;;;;;6138116;23;20047;-91
2023/04/16 04:56:09;;;;;;;101.07;24.75;;;;;;;;;;6138254;23;20009;-91
2023/04/16 04:58:36;;;;;;;112.35;24.40;;;;;;;;;;6137985;23;20009;-92
2023/04/16 05:01:02;;;;;;;96.50;22.50;;;;;;;;;;6138460;23;20013;-93
2023/04/16 05:03:49;;;;;;;98.60;23.05;;;;;;;;;;6137804;23;20013;-91
2023/04/16 05:06:15;;;;;;;103.85;22.02;;;;;;;;;;6161809;23;20015;-92
2023/04/16 05:08:43;;;;;;;127.93;25.23;;;;;;;;;;6160907;23;20040;-92
2023/04/16 05:11:09;;;;;;;87.85;23.00;;;;;;;;;;6139200;23;20032;-92
2023/04/16 05:13:36;;;;;;;98.05;22.95;;;;;;;;;;6138120;23;20339;-94
2023/04/16 05:16:02;;;;;;;93.82;24.15;;;;;;;;;;6162426;23;20071;-92
2023/04/16 05:18:28;;;;;;;94.60;22.92;;;;;;;;;;6138555;23;20005;-92
2023/04/16 05:20:55;;;;;;;89.80;21.67;;;;;;;;;;6139596;23;20029;-91
2023/04/16 05:23:21;;;;;;;88.65;20.95;;;;;;;;;;6137188;23;20135;-91
2023/04/16 05:25:47;;;;;;;101.43;23.25;;;;;;;;;;6161773;23;20461;-91
2023/04/16 05:28:22;;;;;;;73.72;21.65;;;;;;;;;;6160707;23;20008;-92
2023/04/16 05:30:49;;;;;;;80.90;20.65;;;;;;;;;;6137149;23;20365;-93
2023/04/16 05:33:15;;;;;;;92.90;21.75;;;;;;;;;;6161522;23;20013;-92
2023/04/16 05:35:44;;;;;;;105.78;26.20;;;;;;;;;;6160706;23;20055;-91
2023/04/16 05:38:10;;;;;;;84.50;21.20;;;;;;;;;;6138331;23;20479;-92
2023/04/16 05:40:44;;;;;;;79.55;20.08;;;;;;;;;;6150925;22;20025;-92
2023/04/16 05:43:17;;;;;;;88.35;19.85;;;;;;;;;;6139392;23;20009;-92
2023/04/16 05:45:53;;;;;;;97.13;21.27;;;;;;;;;;6163830;23;20039;-92
2023/04/16 05:48:19;;;;;;;83.50;20.63;;;;;;;;;;6138404;23;20499;-92
2023/04/16 05:50:45;;;;;;;77.43;20.98;;;;;;;;;;6139330;23;20351;-92
2023/04/16 05:53:13;;;;;;;92.78;21.30;;;;;;;;;;6138906;23;20009;-92
2023/04/16 05:55:39;;;;;;;63.20;17.48;;;;;;;;;;6140047;23;20089;-92
2023/04/16 05:58:08;;;;;;;62.00;17.45;;;;;;;;;;6139264;23;20017;-92
2023/04/16 06:00:34;;;;;;;44.67;14.48;;;;;;;;;;6139359;23;20017;-92
2023/04/16 06:03:05;;;;;;;54.60;19.00;;;;;;;;;;6164856;23;20012;-92
2023/04/16 06:05:31;;;;;;;50.67;19.10;;;;;;;;;;6163964;23;20005;-92
2023/04/16 06:07:57;;;;;;;76.57;19.13;;;;;;;;;;6164546;23;20032;-93
2023/04/16 06:10:23;;;;;;;82.30;19.45;;;;;;;;;;6163041;23;20095;-93
2023/04/16 06:12:49;;;;;;;78.07;19.08;;;;;;;;;;6163921;23;20016;-92
2023/04/16 06:15:15;;;;;;;77.85;19.73;;;;;;;;;;6139257;23;20431;-92
2023/04/16 06:17:45;;;;;;;85.40;18.65;;;;;;;;;;6139608;23;20009;-92
2023/04/16 06:20:12;;;;;;;73.85;19.55;;;;;;;;;;6138889;23;20013;-93
2023/04/16 06:22:41;;;;;;;71.10;17.98;;;;;;;;;;6163392;23;20016;-92
2023/04/16 06:25:07;;;;;;;81.90;19.38;;;;;;;;;;6139396;23;20017;-92
2023/04/16 06:27:33;;;;;;;82.68;18.95;;;;;;;;;;6136853;23;20017;-92
2023/04/16 06:30:00;;;;;;;77.93;18.17;;;;;;;;;;6162883;23;20072;-92
2023/04/16 06:32:26;;;;;;;76.57;17.45;;;;;;;;;;6161195;23;20009;-93
2023/04/16 06:34:52;;;;;;;85.28;18.60;;;;;;;;;;6138712;23;20009;-92
2023/04/16 06:37:18;;;;;;;73.13;18.75;;;;;;;;;;6161248;23;20317;-93
2023/04/16 06:39:51;;;;;;;82.18;17.50;;;;;;;;;;6147638;23;20052;-92
2023/04/16 06:42:24;;;;;;;63.78;15.43;;;;;;;;;;6214077;22;20035;-92
2023/04/16 06:45:21;;;;;;;81.10;18.70;;;;;;;;;;6226752;23;20264;-92
2023/04/16 06:47:47;;;;;;;67.72;17.40;;;;;;;;;;6219924;23;20013;-93
2023/04/16 06:50:23;;;;;;;65.80;17.35;;;;;;;;;;6228516;23;20009;-93
2023/04/16 06:53:01;;;;;;;67.25;17.13;;;;;;;;;;6199469;23;20079;-92
2023/04/16 06:55:34;;;;;;;63.97;18.83;;;;;;;;;;6224609;23;20001;-92
2023/04/16 06:58:00;;;;;;;52.38;14.88;;;;;;;;;;6197797;23;20005;-92
2023/04/16 07:00:29;;;;;;;51.22;15.48;;;;;;;;;;6191108;23;20020;-93
2023/04/16 07:03:02;;;;;;;52.00;16.60;;;;;;;;;;6196088;23;20032;-92
2023/04/16 07:05:28;;;;;;;59.33;16.20;;;;;;;;;;6228927;23;20043;-91
2023/04/16 07:08:20;;;;;;;56.65;16.42;;;;;;;;;;6227881;23;20019;-92
2023/04/16 07:10:58;;;;;;;61.45;16.90;;;;;;;;;;6217977;23;20047;-92
2023/04/16 07:13:25;;;;;;;58.08;15.90;;;;;;;;;;6215162;23;20257;-92
2023/04/16 07:15:55;;;;;;;42.92;14.48;;;;;;;;;;6192414;23;20068;-93
2023/04/16 07:18:31;;;;;;;53.58;15.05;;;;;;;;;;6200253;23;20008;-92
2023/04/16 07:21:00;;;;;;;38.45;13.98;;;;;;;;;;6231204;23;20004;-92
2023/04/16 08:24:20;;;;;;;37.97;12.35;;;;;;;;;;6194999;22;20070;-93
2023/04/16 08:26:47;;;;;;;39.22;12.27;;;;;;;;;;6194254;23;20016;-93
2023/04/16 08:29:13;;;;;;;44.75;12.13;;;;;;;;;;6193588;23;20039;-92
2023/04/16 08:34:27;;;;;;;42.35;13.07;;;;;;;;;;6222736;23;20055;-92
2023/04/16 08:36:54;;;;;;;41.65;11.95;;;;;;;;;;6196962;23;20116;-92
2023/04/16 08:39:24;;;;;;;34.70;11.07;;;;;;;;;;6198520;23;20013;-92
2023/04/16 08:41:52;;;;;;;30.63;11.45;;;;;;;;;;6173555;23;20016;-94
2023/04/16 08:44:20;;;;;;;38.22;12.90;;;;;;;;;;6204169;23;20035;-94
2023/04/16 08:46:47;;;;;;;38.83;12.13;;;;;;;;;;6208817;23;20038;-94
2023/04/16 08:49:20;;;;;;;33.97;11.45;;;;;;;;;;6207258;23;19996;-94
2023/04/16 08:51:50;;;;;;;28.85;12.60;;;;;;;;;;6178427;23;20032;-94
2023/04/16 08:54:20;;;;;;;38.90;12.43;;;;;;;;;;6198636;23;20009;-94
2023/04/16 08:56:51;;;;;;;41.10;13.25;;;;;;;;;;6199124;23;20044;-94
2023/04/16 08:59:26;;;;;;;29.33;12.07;;;;;;;;;;6174033;23;20418;-95
2023/04/16 09:01:52;;;;;;;;;;;;;;;;;;6225879;23;20024;-95
2023/04/16 09:04:22;;;;;;;39.97;12.10;;;;;;;;;;6196466;23;19900;-95
2023/04/16 09:06:49;;;;;;;34.08;11.63;;;;;;;;;;6174291;23;20012;-95
2023/04/16 09:09:17;;;;;;;32.88;11.68;;;;;;;;;;6198751;23;20012;-95
2023/04/16 09:11:44;;;;;;;33.53;12.05;;;;;;;;;;6197877;23;20001;-95
2023/04/16 09:14:11;;;;;;;33.70;11.82;;;;;;;;;;6197525;23;20003;-94
2023/04/16 09:16:44;;;;;;;41.60;13.15;;;;;;;;;;6172868;23;20024;-95
2023/04/16 09:19:11;;;;;;;39.70;12.75;;;;;;;;;;6196377;23;20197;-93
2023/04/16 09:21:38;;;;;;;32.55;11.73;;;;;;;;;;6197608;23;20012;-94
2023/04/16 09:24:04;;;;;;;34.40;12.35;;;;;;;;;;6172956;22;20009;-94
2023/04/16 09:26:34;;;;;;;32.22;12.70;;;;;;;;;;6166142;23;20125;-94
2023/04/16 09:29:22;;;;;;;38.78;13.25;;;;;;;;;;6169196;23;20009;-96
2023/04/16 09:32:06;;;;;;;34.30;12.48;;;;;;;;;;6193805;23;20009;-95
2023/04/16 09:34:33;;;;;;;30.50;12.40;;;;;;;;;;6196551;23;20005;-94
2023/04/16 09:37:18;;;;;;;32.38;11.32;;;;;;;;;;6197564;23;20419;-94
2023/04/16 09:39:45;;;;;;;26.75;11.63;;;;;;;;;;6198426;23;20005;-94
2023/04/16 09:42:11;;;;;;;32.65;12.30;;;;;;;;;;6165492;23;20017;-94
2023/04/16 09:44:38;;;;;;;21.85;12.00;;;;;;;;;;6190554;23;20024;-95
2023/04/16 09:47:09;;;;;;;33.60;11.13;;;;;;;;;;6192858;23;20025;-93
2023/04/16 09:49:41;;;;;;;30.92;11.52;;;;;;;;;;6190926;23;20087;-94
2023/04/16 09:52:14;;;;;;;27.25;11.48;;;;;;;;;;6190947;23;20017;-95
2023/04/16 09:54:50;;;;;;;32.50;11.88;;;;;;;;;;6194867;23;20005;-94
2023/04/16 09:57:33;;;;;;;23.20;11.15;;;;;;;;;;6191857;23;20009;-95
2023/04/16 10:00:04;;;;;;;30.67;13.10;;;;;;;;;;6168411;23;20321;-94
2023/04/16 10:02:30;;;;;;;31.17;12.05;;;;;;;;;;6191863;23;20040;-94
2023/04/16 10:04:57;;;;;;;29.58;10.93;;;;;;;;;;6165788;23;20013;-94
2023/04/16 10:07:37;;;;;;;28.13;11.15;;;;;;;;;;6191645;23;20009;-94
2023/04/16 10:10:03;;;;;;;30.88;13.32;;;;;;;;;;6168111;23;20031;-95
2023/04/16 10:12:48;;;;;;;33.15;12.02;;;;;;;;;;6192878;23;20027;-95
2023/04/16 10:15:15;;;;;;;30.80;11.02;;;;;;;;;;6167669;23;20009;-95
2023/04/16 10:17:45;;;;;;;38.45;12.30;;;;;;;;;;6170090;23;20060;-94
2023/04/16 10:20:12;;;;;;;28.90;11.95;;;;;;;;;;6167909;23;20039;-95
2023/04/16 10:22:50;;;;;;;33.55;12.18;;;;;;;;;;6169206;23;20016;-94
2023/04/16 10:25:18;;;;;;;37.50;12.68;;;;;;;;;;6171891;23;20060;-95
2023/04/16 10:27:54;;;;;;;34.53;11.77;;;;;;;;;;6194231;23;20016;-95
2023/04/16 10:30:59;;;;;;;31.13;12.32;;;;;;;;;;6194069;23;20085;-95
2023/04/16 10:33:29;;;;;;;35.60;12.52;;;;;;;;;;6161867;23;20067;-95
2023/04/16 10:36:12;;;;;;;29.58;10.90;;;;;;;;;;6193275;23;20008;-95
2023/04/16 10:38:39;;;;;;;30.92;10.55;;;;;;;;;;6193839;23;20012;-94
2023/04/16 10:41:07;;;;;;;35.30;11.35;;;;;;;;;;6197689;23;20487;-94
2023/04/16 10:43:39;;;;;;;34.33;12.30;;;;;;;;;;6193590;23;20009;-95
2023/04/16 10:46:25;;;;;;;22.95;10.77;;;;;;;;;;6194736;23;20013;-95
2023/04/16 10:48:57;;;;;;;32.85;11.40;;;;;;;;;;6197227;23;20009;-94
2023/04/16 10:51:26;;;;;;;32.67;11.15;;;;;;;;;;6196850;23;20008;-95
2023/04/16 10:53:55;;;;;;;28.90;11.32;;;;;;;;;;6197151;23;20009;-95
2023/04/16 10:56:34;;;;;;;23.55;10.43;;;;;;;;;;6194786;23;20321;-95
2023/04/16 10:59:04;;;;;;;33.08;10.80;;;;;;;;;;6197350;23;20005;-96
2023/04/16 11:01:35;;;;;;;26.50;11.20;;;;;;;;;;6194056;23;20016;-96
2023/04/16 11:04:21;;;;;;;23.80;11.38;;;;;;;;;;6193961;23;20324;-96
2023/04/16 11:07:08;;;;;;;28.00;12.05;;;;;;;;;;6197022;23;20024;-96
2023/04/16 11:09:46;;;;;;;27.73;10.38;;;;;;;;;;6194319;23;20013;-95
2023/04/16 11:12:15;;;;;;;33.20;12.10;;;;;;;;;;6194038;23;20093;-94
2023/04/16 11:14:42;;;;;;;28.17;12.20;;;;;;;;;;6197413;23;20001;-95
2023/04/16 11:20:03;;;;;;;25.90;11.52;;;;;;;;;;6187772;23;20013;-95
2023/04/16 11:22:30;;;;;;;32.05;11.65;;;;;;;;;;6194746;23;20009;-95
2023/04/16 11:24:57;;;;;;;27.88;10.40;;;;;;;;;;6195130;22;20024;-95
2023/04/16 11:27:26;;;;;;;30.98;11.68;;;;;;;;;;6195588;23;20009;-94
2023/04/16 11:32:49;;;;;;;27.65;13.93;;;;;;;;;;6188050;23;20044;-94
2023/04/16 11:35:19;;;;;;;25.63;12.20;;;;;;;;;;6172555;23;20351;-94
2023/04/16 11:37:49;;;;;;;27.65;11.80;;;;;;;;;;6195263;23;20001;-94
2023/04/16 11:40:18;;;;;;;32.20;11.93;;;;;;;;;;6170762;23;20031;-94
2023/04/16 11:42:50;;;;;;;25.67;11.00;;;;;;;;;;6169765;23;20264;-95
2023/04/16 11:45:19;;;;;;;20.92;11.05;;;;;;;;;;6194395;23;20051;-94
2023/04/16 11:47:50;;;;;;;31.45;12.68;;;;;;;;;;6170894;23;20457;-95
2023/04/16 11:53:36;;;;;;;32.70;12.20;;;;;;;;;;6133605;23;20038;-95
2023/04/16 11:56:03;;;;;;;30.42;11.45;;;;;;;;;;6162911;23;20024;-95
2023/04/16 12:01:44;;;;;;;26.85;11.52;;;;;;;;;;6176397;23;20015;-95
2023/04/16 12:04:11;;;;;;;25.35;11.93;;;;;;;;;;6173794;23;20017;-96
2023/04/16 12:06:37;;;;;;;33.40;12.65;;;;;;;;;;6171683;23;20040;-94
2023/04/16 12:09:23;;;;;;;25.17;12.02;;;;;;;;;;6169619;23;20009;-95
2023/04/16 12:11:56;;;;;;;37.47;12.68;;;;;;;;;;6193647;23;20009;-94
2023/04/16 12:14:23;;;;;;;27.67;11.65;;;;;;;;;;6194114;23;20406;-95
2023/04/16 12:16:49;;;;;;;32.35;12.23;;;;;;;;;;6194230;23;20039;-95
2023/04/16 12:19:27;;;;;;;31.77;12.57;;;;;;;;;;6172100;23;20016;-95
2023/04/16 12:21:54;;;;;;;31.73;12.23;;;;;;;;;;6197271;23;20010;-96
2023/04/16 12:24:21;;;;;;;23.48;11.80;;;;;;;;;;6199906;23;20008;-94
2023/04/16 12:26:48;;;;;;;23.77;12.10;;;;;;;;;;6206834;22;20394;-94
2023/04/16 12:29:40;;;;;;;33.85;14.43;;;;;;;;;;6204414;23;20016;-95
2023/04/16 12:32:21;;;;;;;44.50;12.50;;;;;;;;;;6196718;23;20028;-94
2023/04/16 12:34:50;;;;;;;32.28;11.98;;;;;;;;;;6202767;23;20069;-95
2023/04/16 12:37:16;;;;;;;32.60;12.77;;;;;;;;;;6206324;23;19997;-95
2023/04/16 12:39:43;;;;;;;34.55;13.63;;;;;;;;;;6206275;23;20009;-94
2023/04/16 12:42:11;;;;;;;27.90;12.80;;;;;;;;;;6177651;23;20013;-94
2023/04/16 12:44:38;;;;;;;21.70;10.93;;;;;;;;;;6170653;23;20403;-95
2023/04/16 12:47:04;;;;;;;31.55;13.60;;;;;;;;;;6169485;23;20307;-95
2023/04/16 12:49:30;;;;;;;27.83;12.45;;;;;;;;;;6167573;23;20028;-95
2023/04/16 12:51:57;;;;;;;33.75;12.43;;;;;;;;;;6168163;23;20095;-94
2023/04/16 12:54:27;;;;;;;37.05;13.32;;;;;;;;;;6192355;23;20009;-95
2023/04/16 12:56:54;;;;;;;34.40;12.63;;;;;;;;;;6190426;23;20027;-95
2023/04/16 12:59:20;;;;;;;28.60;11.95;;;;;;;;;;6166069;23;20317;-94
2023/04/16 13:01:46;;;;;;;35.95;12.82;;;;;;;;;;6192335;23;20009;-95
2023/04/16 13:04:12;;;;;;;30.10;12.95;;;;;;;;;;6191418;23;20064;-95
2023/04/16 13:06:38;;;;;;;32.70;12.40;;;;;;;;;;6193119;23;20376;-95
2023/04/16 13:09:05;;;;;;;36.95;13.48;;;;;;;;;;6167405;23;20040;-95
2023/04/16 13:11:34;;;;;;;31.80;12.65;;;;;;;;;;6192303;23;20436;-95
2023/04/16 13:14:01;;;;;;;34.90;14.32;;;;;;;;;;6193142;23;20079;-95
2023/04/16 13:16:30;;;;;;;30.83;12.55;;;;;;;;;;6192700;23;20111;-94
2023/04/16 13:19:15;;;;;;;39.55;15.32;;;;;;;;;;6168008;23;20009;-95
2023/04/16 13:21:42;;;;;;;32.80;13.25;;;;;;;;;;6168472;23;20009;-96
2023/04/16 13:24:08;;;;;;;30.52;12.32;;;;;;;;;;6167119;23;20005;-95
2023/04/16 13:26:42;;;;;;;36.17;13.27;;;;;;;;;;6171670;23;20051;-94
2023/04/16 13:29:09;;;;;;;40.03;13.15;;;;;;;;;;6169393;23;20017;-95
2023/04/16 13:31:35;;;;;;;31.52;12.35;;;;;;;;;;6166904;23;20027;-95
2023/04/16 13:34:03;;;;;;;36.65;13.43;;;;;;;;;;6193860;23;20005;-95
2023/04/16 13:36:31;;;;;;;38.72;13.27;;;;;;;;;;6170032;23;20008;-95
2023/04/16 13:38:58;;;;;;;40.08;14.55;;;;;;;;;;6194419;23;20005;-94
2023/04/16 13:41:24;;;;;;;35.15;14.98;;;;;;;;;;6171317;23;20519;-95
2023/04/16 13:43:53;;;;;;;36.85;14.30;;;;;;;;;;6196932;23;20009;-94
2023/04/16 13:46:32;;;;;;;37.63;13.60;;;;;;;;;;6173128;23;20507;-94
2023/04/16 13:48:59;;;;;;;32.55;14.35;;;;;;;;;;6173702;23;20069;-94
2023/04/16 13:51:34;;;;;;;47.28;14.25;;;;;;;;;;6200417;23;20016;-95
2023/04/16 13:54:01;;;;;;;;;;;;;;;;;;6183663;23;20015;-95
2023/04/16 13:56:27;;;;;;;27.60;13.18;;;;;;;;;;6206812;23;19952;-94
2023/04/16 13:58:59;;;;;;;29.85;12.48;;;;;;;;;;6179802;23;20005;-94
2023/04/16 14:01:28;;;;;;;32.05;12.32;;;;;;;;;;6183389;23;20017;-95
2023/04/16 14:03:54;;;;;;;30.13;11.95;;;;;;;;;;6177197;23;20369;-95
2023/04/16 14:06:20;;;;;;;30.45;12.15;;;;;;;;;;6175977;23;20016;-94
2023/04/16 14:08:47;;;;;;;33.50;14.68;;;;;;;;;;6172709;23;20077;-94
2023/04/16 14:11:13;;;;;;;26.10;13.60;;;;;;;;;;6172452;23;20091;-94
2023/04/16 14:13:39;;;;;;;25.33;11.63;;;;;;;;;;6194090;23;20046;-95
2023/04/16 14:16:05;;;;;;;24.92;12.57;;;;;;;;;;6169452;23;20005;-95
2023/04/16 14:18:32;;;;;;;30.58;12.70;;;;;;;;;;6169487;23;20009;-94
2023/04/16 14:21:02;;;;;;;27.88;11.05;;;;;;;;;;6170209;23;20033;-94
2023/04/16 14:23:38;;;;;;;30.45;12.40;;;;;;;;;;6170795;23;20076;-95
2023/04/16 14:26:04;;;;;;;25.10;11.65;;;;;;;;;;6172692;23;20081;-94
2023/04/16 14:28:30;;;;;;;36.40;12.05;;;;;;;;;;6170398;23;20009;-94
2023/04/16 14:30:57;;;;;;;27.02;10.73;;;;;;;;;;6172730;23;20012;-95
2023/04/16 14:33:23;;;;;;;27.60;11.27;;;;;;;;;;6172219;23;20028;-95
2023/04/16 14:35:50;;;;;;;24.92;11.85;;;;;;;;;;6173040;23;20005;-95
2023/04/16 14:38:16;;;;;;;23.98;11.18;;;;;;;;;;6173497;23;20001;-95
2023/04/16 14:40:42;;;;;;;25.40;12.45;;;;;;;;;;6198671;23;20009;-95
2023/04/16 14:43:08;;;;;;;25.63;11.98;;;;;;;;;;6174455;23;20013;-95
2023/04/16 14:45:37;;;;;;;26.08;11.18;;;;;;;;;;6173503;23;20016;-94
2023/04/16 14:48:06;;;;;;;25.85;11.45;;;;;;;;;;6177741;23;20033;-95
2023/04/16 14:50:42;;;;;;;26.33;10.52;;;;;;;;;;6203381;23;20015;-94
2023/04/16 14:53:13;;;;;;;27.38;11.75;;;;;;;;;;6202487;23;20072;-95
2023/04/16 14:55:40;;;;;;;21.55;10.48;;;;;;;;;;6203226;23;20001;-94
2023/04/16 14:58:06;;;;;;;21.67;10.73;;;;;;;;;;6179022;23;20019;-95
2023/04/16 15:00:38;;;;;;;21.38;10.77;;;;;;;;;;6202219;23;20001;-92
2023/04/16 15:03:05;;;;;;;25.20;11.90;;;;;;;;;;6177688;23;20013;-94
2023/04/16 15:05:31;;;;;;;29.73;10.55;;;;;;;;;;6204687;23;20005;-94
2023/04/16 15:07:57;;;;;;;25.83;11.45;;;;;;;;;;6179772;23;20039;-95
2023/04/16 15:10:23;;;;;;;31.83;12.68;;;;;;;;;;6179126;23;20005;-95
2023/04/16 15:12:53;;;;;;;36.65;13.00;;;;;;;;;;6181210;23;19997;-96
2023/04/16 15:15:20;;;;;;;38.38;12.82;;;;;;;;;;6183744;23;20020;-94
2023/04/16 15:17:46;;;;;;;33.28;12.23;;;;;;;;;;6200784;23;20020;-95
2023/04/16 15:20:13;;;;;;;30.17;10.90;;;;;;;;;;6196509;23;20008;-94
2023/04/16 15:22:39;;;;;;;27.13;12.65;;;;;;;;;;6171972;23;20020;-94
2023/04/16 15:25:09;;;;;;;36.90;14.02;;;;;;;;;;6196220;23;20008;-94
2023/04/16 15:27:42;;;;;;;30.67;12.43;;;;;;;;;;6197147;22;20028;-95
2023/04/16 15:30:09;;;;;;;26.17;11.98;;;;;;;;;;6170334;23;20017;-94
2023/04/16 15:32:43;;;;;;;30.08;13.07;;;;;;;;;;6168057;23;20067;-94
2023/04/16 15:35:16;;;;;;;34.17;13.50;;;;;;;;;;6192087;23;20331;-95
2023/04/16 15:38:03;;;;;;;32.83;14.60;;;;;;;;;;6169046;23;20017;-95
2023/04/16 15:51:02;;;;;;;32.28;14.45;;;;;;;;;;6167772;23;19920;-94
2023/04/16 15:53:28;;;;;;;33.33;14.13;;;;;;;;;;6188455;23;20025;-93
2023/04/16 15:55:57;;;;;;;29.23;13.43;;;;;;;;;;6143788;23;20012;-93
2023/04/16 15:58:24;;;;;;;32.65;14.30;;;;;;;;;;6144682;23;20021;-93
2023/04/16 16:00:57;;;;;;;34.35;14.65;;;;;;;;;;6195558;23;20016;-93
2023/04/16 16:06:19;;;;;;;27.95;14.63;;;;;;;;;;6137905;23;20020;-93